createdAt,value
2022-12-14T00:02:01.921Z,-6.66
2022-12-14T00:04:30.524Z,-6.65
2022-12-14T00:06:58.886Z,-6.65
2022-12-14T00:09:27.207Z,-6.65
2022-12-14T00:11:55.532Z,-6.64
2022-12-14T00:14:23.905Z,-6.65
2022-12-14T00:16:52.198Z,-6.66
2022-12-14T00:19:20.812Z,-6.66
2022-12-14T00:21:49.133Z,-6.67
2022-12-14T00:24:17.564Z,-6.68
2022-12-14T00:26:45.891Z,-6.71
2022-12-14T00:29:14.202Z,-6.72
2022-12-14T00:31:42.547Z,-6.72
2022-12-14T00:34:10.919Z,-6.74
2022-12-14T00:36:39.279Z,-6.77
2022-12-14T00:39:07.600Z,-6.80
2022-12-14T00:41:35.854Z,-6.83
2022-12-14T00:44:04.322Z,-6.84
2022-12-14T00:46:32.596Z,-6.85
2022-12-14T00:49:00.868Z,-6.85
2022-12-14T00:51:29.234Z,-6.86
2022-12-14T00:53:57.486Z,-6.90
2022-12-14T00:56:25.707Z,-6.91
2022-12-14T00:58:54.437Z,-6.91
2022-12-14T01:01:22.904Z,-6.90
2022-12-14T01:03:51.539Z,-6.90
2022-12-14T01:06:23.058Z,-6.90
2022-12-14T01:08:51.437Z,-6.92
2022-12-14T01:11:19.671Z,-6.94
2022-12-14T01:13:49.621Z,-6.96
2022-12-14T01:16:18.432Z,-6.98
2022-12-14T01:18:46.899Z,-7.00
2022-12-14T01:21:21.280Z,-7.00
2022-12-14T01:23:54.476Z,-7.01
2022-12-14T01:26:24.116Z,-7.00
2022-12-14T01:28:57.368Z,-7.01
2022-12-14T01:31:29.197Z,-6.99
2022-12-14T01:33:58.807Z,-7.00
2022-12-14T01:36:29.775Z,-6.99
2022-12-14T01:39:09.810Z,-7.01
2022-12-14T01:41:47.523Z,-7.01
2022-12-14T01:44:18.549Z,-7.02
2022-12-14T01:46:57.200Z,-7.03
2022-12-14T01:49:31.359Z,-7.04
2022-12-14T01:52:20.660Z,-7.02
2022-12-14T01:54:58.457Z,-7.01
2022-12-14T01:57:36.995Z,-7.02
2022-12-14T02:00:09.194Z,-7.01
2022-12-14T02:02:41.398Z,-7.02
2022-12-14T02:05:11.385Z,-7.03
2022-12-14T02:07:42.494Z,-7.01
2022-12-14T02:10:17.931Z,-6.97
2022-12-14T02:12:51.315Z,-6.97
2022-12-14T02:15:19.719Z,-6.97
2022-12-14T02:17:49.294Z,-6.95
2022-12-14T02:20:18.513Z,-6.94
2022-12-14T02:23:08.689Z,-6.94
2022-12-14T02:25:58.458Z,-6.94
2022-12-14T02:29:05.281Z,-6.96
2022-12-14T02:31:58.845Z,-6.96
2022-12-14T02:34:39.355Z,-6.99
2022-12-14T02:37:22.576Z,-6.98
2022-12-14T02:40:13.459Z,-6.97
2022-12-14T02:42:48.788Z,-6.97
2022-12-14T02:45:27.356Z,-6.97
2022-12-14T02:48:03.230Z,-6.98
2022-12-14T02:50:44.219Z,-6.99
2022-12-14T02:53:12.487Z,-6.99
2022-12-14T02:55:50.853Z,-7.01
2022-12-14T02:58:42.018Z,-7.00
2022-12-14T03:01:14.885Z,-7.00
2022-12-14T03:03:43.667Z,-6.99
2022-12-14T03:06:26.219Z,-6.97
2022-12-14T03:09:02.959Z,-6.96
2022-12-14T03:11:43.087Z,-6.97
2022-12-14T03:14:19.349Z,-6.96
2022-12-14T03:16:52.132Z,-6.95
2022-12-14T03:19:38.177Z,-6.95
2022-12-14T03:22:17.361Z,-6.94
2022-12-14T03:24:52.978Z,-6.95
2022-12-14T03:27:36.232Z,-6.95
2022-12-14T03:30:11.992Z,-6.97
2022-12-14T03:32:47.062Z,-6.99
2022-12-14T03:35:29.781Z,-7.01
2022-12-14T03:38:21.354Z,-7.00
2022-12-14T03:41:31.629Z,-7.02
2022-12-14T03:44:05.167Z,-7.04
2022-12-14T03:46:47.091Z,-7.09
2022-12-14T03:49:36.714Z,-7.10
2022-12-14T03:52:29.047Z,-7.15
2022-12-14T03:55:06.409Z,-7.16
2022-12-14T03:57:59.949Z,-7.18
2022-12-14T04:00:35.256Z,-7.18
2022-12-14T04:03:48.546Z,-7.16
2022-12-14T04:06:25.831Z,-7.18
2022-12-14T04:09:18.597Z,-7.18
2022-12-14T04:12:20.101Z,-7.20
2022-12-14T04:15:15.220Z,-7.19
2022-12-14T04:18:05.164Z,-7.20
2022-12-14T04:20:43.382Z,-7.19
2022-12-14T04:23:16.797Z,-7.22
2022-12-14T04:26:05.900Z,-7.25
2022-12-14T04:29:01.312Z,-7.27
2022-12-14T04:31:33.169Z,-7.27
2022-12-14T04:34:04.982Z,-7.30
2022-12-14T04:36:53.330Z,-7.30
2022-12-14T04:39:43.818Z,-7.31
2022-12-14T04:42:15.419Z,-7.31
2022-12-14T04:44:50.759Z,-7.33
2022-12-14T04:47:20.144Z,-7.35
2022-12-14T04:50:13.313Z,-7.36
2022-12-14T04:52:51.650Z,-7.38
2022-12-14T04:55:37.000Z,-7.40
2022-12-14T04:58:31.238Z,-7.37
2022-12-14T05:01:17.891Z,-7.37
2022-12-14T05:04:02.356Z,-7.34
2022-12-14T05:06:38.079Z,-7.32
2022-12-14T05:09:20.065Z,-7.30
2022-12-14T05:12:19.653Z,-7.28
2022-12-14T05:14:58.724Z,-7.29
2022-12-14T05:17:28.468Z,-7.30
2022-12-14T05:19:56.720Z,-7.31
2022-12-14T05:22:24.984Z,-7.31
2022-12-14T05:24:53.363Z,-7.30
2022-12-14T05:27:21.683Z,-7.30
2022-12-14T05:29:49.951Z,-7.27
2022-12-14T05:32:18.295Z,-7.23
2022-12-14T05:34:46.595Z,-7.21
2022-12-14T05:37:18.468Z,-7.20
2022-12-14T05:39:47.360Z,-7.18
2022-12-14T05:42:15.728Z,-7.15
2022-12-14T05:44:44.084Z,-7.08
2022-12-14T05:47:14.196Z,-7.05
2022-12-14T05:49:42.577Z,-6.99
2022-12-14T05:52:11.050Z,-6.96
2022-12-14T05:54:39.405Z,-6.94
2022-12-14T05:57:07.729Z,-6.92
2022-12-14T05:59:35.969Z,-6.91
2022-12-14T06:02:05.405Z,-6.89
2022-12-14T06:04:33.773Z,-6.85
2022-12-14T06:07:02.072Z,-6.83
2022-12-14T06:09:30.375Z,-6.82
2022-12-14T06:11:58.739Z,-6.82
2022-12-14T06:14:27.148Z,-6.82
2022-12-14T06:16:55.474Z,-6.81
2022-12-14T06:19:23.780Z,-6.82
2022-12-14T06:21:52.023Z,-6.80
2022-12-14T06:24:20.388Z,-6.78
2022-12-14T06:26:48.678Z,-6.74
2022-12-14T06:29:20.245Z,-6.71
2022-12-14T06:31:49.446Z,-6.69
2022-12-14T06:34:22.224Z,-6.67
2022-12-14T06:36:53.377Z,-6.63
2022-12-14T06:39:21.637Z,-6.60
2022-12-14T06:41:52.032Z,-6.56
2022-12-14T06:44:20.373Z,-6.52
2022-12-14T06:46:48.808Z,-6.49
2022-12-14T06:49:17.508Z,-6.45
2022-12-14T06:51:45.810Z,-6.42
2022-12-14T06:54:16.018Z,-6.39
2022-12-14T06:56:47.051Z,-6.38
2022-12-14T06:59:17.315Z,-6.36
2022-12-14T07:01:50.190Z,-6.31
2022-12-14T07:04:21.643Z,-6.24
2022-12-14T07:06:50.300Z,-6.17
2022-12-14T07:09:18.635Z,-6.08
2022-12-14T07:11:50.728Z,-5.99
2022-12-14T07:14:19.122Z,-5.90
2022-12-14T07:16:48.648Z,-5.82
2022-12-14T07:19:18.111Z,-5.74
2022-12-14T07:21:46.521Z,-5.66
2022-12-14T07:24:15.075Z,-5.60
2022-12-14T07:26:43.470Z,-5.58
2022-12-14T07:29:12.353Z,-5.52
2022-12-14T07:31:40.884Z,-5.48
2022-12-14T07:34:13.160Z,-5.40
2022-12-14T07:36:43.492Z,-5.33
2022-12-14T07:39:15.629Z,-5.24
2022-12-14T07:41:47.256Z,-5.13
2022-12-14T07:44:19.916Z,-4.98
2022-12-14T07:46:48.335Z,-4.85
2022-12-14T07:49:16.581Z,-4.71
2022-12-14T07:51:46.033Z,-4.56
2022-12-14T07:54:14.958Z,-4.38
2022-12-14T07:56:44.213Z,-4.30
2022-12-14T07:59:16.429Z,-4.11
2022-12-14T08:01:45.347Z,-3.89
2022-12-14T08:04:17.074Z,-3.67
2022-12-14T08:06:49.698Z,-3.39
2022-12-14T08:09:19.905Z,-3.05
2022-12-14T08:11:48.249Z,-2.73
2022-12-14T08:14:19.293Z,-2.45
2022-12-14T08:16:48.449Z,-2.20
2022-12-14T08:19:18.044Z,-2.00
2022-12-14T08:21:46.894Z,-1.81
2022-12-14T08:24:17.186Z,-1.63
2022-12-14T08:26:48.949Z,-1.40
2022-12-14T08:29:19.098Z,-1.11
2022-12-14T08:31:47.878Z,-0.88
2022-12-14T08:34:22.882Z,-0.66
2022-12-14T08:36:51.432Z,-0.44
2022-12-14T08:39:22.279Z,-0.38
2022-12-14T08:41:50.562Z,-0.39
2022-12-14T08:44:18.927Z,-0.39
2022-12-14T08:46:47.906Z,-0.42
2022-12-14T08:49:16.406Z,-0.39
2022-12-14T08:51:44.690Z,-0.39
2022-12-14T08:54:13.112Z,-0.39
2022-12-14T08:56:41.529Z,-0.34
2022-12-14T08:59:24.495Z,-0.25
2022-12-14T09:01:58.191Z,-0.16
2022-12-14T09:04:26.738Z,-0.07
2022-12-14T09:06:55.050Z,-0.02
2022-12-14T09:09:23.356Z,-0.05
2022-12-14T09:11:51.771Z,-0.08
2022-12-14T09:14:20.594Z,-0.24
2022-12-14T09:16:48.924Z,-0.30
2022-12-14T09:19:17.255Z,-0.44
2022-12-14T09:21:45.740Z,-0.57
2022-12-14T09:24:14.026Z,-0.66
2022-12-14T09:26:42.365Z,-0.69
2022-12-14T09:29:15.234Z,-0.68
2022-12-14T09:31:45.582Z,-0.66
2022-12-14T09:34:14.196Z,-0.64
2022-12-14T09:36:42.568Z,-0.51
2022-12-14T09:39:15.040Z,-0.40
2022-12-14T09:42:00.511Z,-0.36
2022-12-14T09:44:53.209Z,-0.36
2022-12-14T09:47:33.809Z,-0.37
2022-12-14T09:50:12.672Z,-0.34
2022-12-14T09:52:53.588Z,-0.27
2022-12-14T09:55:34.227Z,-0.08
2022-12-14T09:58:05.724Z,0.21
2022-12-14T10:00:49.649Z,0.44
2022-12-14T10:03:31.877Z,0.50
2022-12-14T10:06:00.518Z,0.47
2022-12-14T10:08:41.280Z,0.44
2022-12-14T10:11:28.271Z,0.51
2022-12-14T10:14:16.498Z,0.65
2022-12-14T10:16:55.513Z,0.98
2022-12-14T10:19:41.799Z,1.12
2022-12-14T10:22:21.635Z,1.18
2022-12-14T10:24:55.079Z,1.13
2022-12-14T10:27:26.246Z,1.07
2022-12-14T10:30:08.890Z,1.19
2022-12-14T10:32:39.572Z,1.52
2022-12-14T10:35:15.531Z,1.90
2022-12-14T10:38:01.187Z,2.26
2022-12-14T10:40:34.426Z,2.58
2022-12-14T10:43:22.367Z,2.83
2022-12-14T10:46:24.572Z,3.03
2022-12-14T10:49:03.343Z,3.04
2022-12-14T10:51:37.520Z,2.87
2022-12-14T10:54:12.445Z,2.44
2022-12-14T10:56:43.563Z,2.21
2022-12-14T10:59:18.431Z,2.06
2022-12-14T11:01:49.990Z,2.00
2022-12-14T11:04:29.889Z,1.90
2022-12-14T11:07:01.388Z,1.84
2022-12-14T11:09:30.298Z,1.79
2022-12-14T11:12:05.754Z,1.67
2022-12-14T11:14:36.912Z,1.56
2022-12-14T11:17:05.826Z,1.35
2022-12-14T11:19:34.391Z,1.14
2022-12-14T11:22:12.869Z,0.89
2022-12-14T11:24:46.726Z,0.73
2022-12-14T11:27:21.218Z,0.54
2022-12-14T11:29:51.456Z,0.32
2022-12-14T11:32:24.244Z,0.19
2022-12-14T11:34:59.083Z,0.10
2022-12-14T11:37:31.123Z,0.08
2022-12-14T11:40:02.223Z,-0.01
2022-12-14T11:42:31.070Z,-0.12
2022-12-14T11:45:29.565Z,-0.07
2022-12-14T11:48:16.350Z,0.08
2022-12-14T11:50:47.356Z,0.23
2022-12-14T11:53:19.549Z,0.35
2022-12-14T11:56:00.803Z,0.51
2022-12-14T11:58:34.036Z,0.65
2022-12-14T12:01:12.088Z,0.75
2022-12-14T12:03:50.081Z,0.89
2022-12-14T12:06:24.532Z,1.00
2022-12-14T12:09:03.024Z,1.10
2022-12-14T12:11:34.665Z,1.26
2022-12-14T12:14:24.903Z,1.35
2022-12-14T12:16:56.367Z,1.37
2022-12-14T12:19:38.261Z,1.35
2022-12-14T12:22:11.961Z,1.33
2022-12-14T12:25:24.164Z,1.27
2022-12-14T12:27:50.716Z,1.23
2022-12-14T12:30:29.654Z,1.23
2022-12-14T12:33:08.127Z,1.27
2022-12-14T12:35:57.190Z,1.22
2022-12-14T12:38:53.594Z,1.22
2022-12-14T12:41:45.428Z,1.21
2022-12-14T12:44:36.938Z,1.19
2022-12-14T12:47:25.533Z,1.14
2022-12-14T12:50:02.444Z,0.91
2022-12-14T12:52:49.596Z,0.81
2022-12-14T12:55:21.361Z,0.74
2022-12-14T12:57:54.280Z,0.66
2022-12-14T13:00:25.971Z,0.59
2022-12-14T13:03:41.731Z,0.52
2022-12-14T13:06:30.919Z,0.38
2022-12-14T13:09:02.352Z,0.29
2022-12-14T13:11:36.389Z,0.18
2022-12-14T13:14:32.733Z,0.07
2022-12-14T13:17:05.990Z,-0.05
2022-12-14T13:19:54.558Z,-0.19
2022-12-14T13:22:28.906Z,-0.34
2022-12-14T13:25:02.965Z,-0.42
2022-12-14T13:28:09.187Z,-0.48
2022-12-14T13:30:58.565Z,-0.61
2022-12-14T13:33:54.675Z,-0.66
2022-12-14T13:36:47.978Z,-0.73
2022-12-14T13:39:34.915Z,-0.82
2022-12-14T13:42:38.498Z,-0.93
2022-12-14T13:45:18.244Z,-1.08
2022-12-14T13:47:51.576Z,-1.19
2022-12-14T13:50:36.296Z,-1.26
2022-12-14T13:53:15.971Z,-1.34
2022-12-14T13:55:56.789Z,-1.39
2022-12-14T13:58:46.327Z,-1.48
2022-12-14T14:01:36.952Z,-1.53
2022-12-14T14:04:11.686Z,-1.61
2022-12-14T14:06:45.024Z,-1.65
2022-12-14T14:09:34.808Z,-1.69
2022-12-14T14:12:21.820Z,-1.70
2022-12-14T14:15:02.809Z,-1.74
2022-12-14T14:17:51.174Z,-1.82
2022-12-14T14:20:53.817Z,-1.87
2022-12-14T14:23:30.362Z,-1.92
2022-12-14T14:26:25.203Z,-1.95
2022-12-14T14:29:29.389Z,-1.99
2022-12-14T14:32:03.886Z,-2.01
2022-12-14T14:34:44.914Z,-2.00
2022-12-14T14:37:20.096Z,-2.02
2022-12-14T14:40:18.903Z,-2.05
2022-12-14T14:43:27.594Z,-2.04
2022-12-14T14:46:01.334Z,-2.02
2022-12-14T14:48:53.265Z,-1.97
2022-12-14T14:51:26.900Z,-1.94
2022-12-14T14:54:46.287Z,-1.92
2022-12-14T14:57:55.002Z,-1.89
2022-12-14T15:00:23.740Z,-1.85
2022-12-14T15:02:54.624Z,-1.81
2022-12-14T15:05:42.031Z,-1.78
2022-12-14T15:08:39.021Z,-1.77
2022-12-14T15:11:17.082Z,-1.78
2022-12-14T15:14:02.711Z,-1.79
2022-12-14T15:16:42.066Z,-1.81
2022-12-14T15:19:33.665Z,-1.83
2022-12-14T15:22:13.283Z,-1.86
2022-12-14T15:24:44.920Z,-1.85
2022-12-14T15:27:30.604Z,-1.84
2022-12-14T15:30:19.480Z,-1.81
2022-12-14T15:32:58.527Z,-1.79
2022-12-14T15:35:30.823Z,-1.78
2022-12-14T15:38:06.357Z,-1.76
2022-12-14T15:40:35.764Z,-1.73
2022-12-14T15:43:18.318Z,-1.71
2022-12-14T15:45:51.945Z,-1.69
2022-12-14T15:48:25.004Z,-1.66
2022-12-14T15:50:55.569Z,-1.65
2022-12-14T15:53:35.676Z,-1.64
2022-12-14T15:56:34.847Z,-1.64
2022-12-14T15:59:23.865Z,-1.62
2022-12-14T16:02:15.734Z,-1.62
2022-12-14T16:04:45.540Z,-1.59
2022-12-14T16:07:18.874Z,-1.56
2022-12-14T16:09:51.788Z,-1.53
2022-12-14T16:12:26.371Z,-1.48
2022-12-14T16:14:54.746Z,-1.45
2022-12-14T16:17:37.498Z,-1.42
2022-12-14T16:20:11.454Z,-1.38
2022-12-14T16:22:42.291Z,-1.35
2022-12-14T16:25:10.638Z,-1.33
2022-12-14T16:27:40.827Z,-1.32
2022-12-14T16:30:28.038Z,-1.32
2022-12-14T16:33:20.283Z,-1.31
2022-12-14T16:36:01.651Z,-1.29
2022-12-14T16:38:30.409Z,-1.27
2022-12-14T16:41:02.010Z,-1.29
2022-12-14T16:43:41.917Z,-1.28
2022-12-14T16:46:12.014Z,-1.29
2022-12-14T16:48:43.378Z,-1.36
2022-12-14T16:51:32.747Z,-1.31
2022-12-14T16:54:22.788Z,-1.31
2022-12-14T16:56:56.515Z,-1.30
2022-12-14T16:59:45.832Z,-1.28
2022-12-14T17:02:38.308Z,-1.28
2022-12-14T17:05:18.969Z,-1.28
2022-12-14T17:07:47.306Z,-1.28
2022-12-14T17:10:24.146Z,-1.28
2022-12-14T17:13:00.044Z,-1.27
2022-12-14T17:15:33.001Z,-1.24
2022-12-14T17:18:04.771Z,-1.23
2022-12-14T17:20:39.471Z,-1.22
2022-12-14T17:23:12.257Z,-1.19
2022-12-14T17:25:46.038Z,-1.17
2022-12-14T17:28:24.015Z,-1.16
2022-12-14T17:30:56.703Z,-1.14
2022-12-14T17:33:27.686Z,-1.13
2022-12-14T17:35:56.847Z,-1.13
2022-12-14T17:38:25.427Z,-1.14
2022-12-14T17:40:54.665Z,-1.13
2022-12-14T17:43:30.174Z,-1.13
2022-12-14T17:46:03.550Z,-1.15
2022-12-14T17:48:32.680Z,-1.12
2022-12-14T17:51:02.023Z,-1.10
2022-12-14T17:53:31.641Z,-1.09
2022-12-14T17:56:00.811Z,-1.06
2022-12-14T17:58:29.942Z,-1.04
2022-12-14T18:01:02.104Z,-1.00
2022-12-14T18:03:34.044Z,-0.97
2022-12-14T18:06:04.794Z,-0.94
2022-12-14T18:08:33.609Z,-0.91
2022-12-14T18:11:11.774Z,-0.89
2022-12-14T18:13:43.085Z,-0.85
2022-12-14T18:16:14.279Z,-0.81
2022-12-14T18:18:49.965Z,-0.76
2022-12-14T18:21:28.502Z,-0.68
2022-12-14T18:23:57.587Z,-0.59
2022-12-14T18:26:26.253Z,-0.54
2022-12-14T18:28:55.596Z,-0.51
2022-12-14T18:31:31.589Z,-0.46
2022-12-14T18:34:00.655Z,-0.43
2022-12-14T18:36:29.773Z,-0.40
2022-12-14T18:38:59.065Z,-0.35
2022-12-14T18:41:29.867Z,-0.33
2022-12-14T18:44:00.714Z,-0.30
2022-12-14T18:46:29.174Z,-0.27
2022-12-14T18:48:57.847Z,-0.25
2022-12-14T18:51:27.348Z,-0.20
2022-12-14T18:53:58.531Z,-0.17
2022-12-14T18:56:29.324Z,-0.13
2022-12-14T18:59:00.499Z,-0.08
2022-12-14T19:01:29.813Z,-0.07
2022-12-14T19:03:59.219Z,-0.07
2022-12-14T19:06:44.070Z,-0.08
2022-12-14T19:09:14.961Z,-0.09
2022-12-14T19:11:47.052Z,-0.09
2022-12-14T19:14:16.387Z,-0.08
2022-12-14T19:16:45.443Z,-0.09
2022-12-14T19:19:35.669Z,-0.08
2022-12-14T19:22:08.927Z,-0.05
2022-12-14T19:24:41.059Z,-0.03
2022-12-14T19:27:10.226Z,-0.01
2022-12-14T19:29:42.039Z,0.02
2022-12-14T19:32:14.171Z,0.03
2022-12-14T19:34:43.333Z,0.05
2022-12-14T19:37:12.486Z,0.06
2022-12-14T19:39:44.137Z,0.07
2022-12-14T19:42:15.991Z,0.10
2022-12-14T19:44:47.279Z,0.10
2022-12-14T19:47:26.147Z,0.11
2022-12-14T19:49:57.415Z,0.12
2022-12-14T19:52:36.139Z,0.14
2022-12-14T19:55:05.650Z,0.14
2022-12-14T19:57:38.911Z,0.14
2022-12-14T20:00:09.369Z,0.13
2022-12-14T20:02:42.648Z,0.13
2022-12-14T20:05:13.270Z,0.07
2022-12-14T20:07:45.221Z,0.16
2022-12-14T20:10:23.082Z,0.20
2022-12-14T20:12:53.853Z,0.23
2022-12-14T20:15:25.176Z,0.24
2022-12-14T20:18:04.972Z,0.25
2022-12-14T20:20:34.420Z,0.26
2022-12-14T20:23:05.425Z,0.24
2022-12-14T20:25:34.661Z,0.19
2022-12-14T20:28:04.575Z,0.17
2022-12-14T20:30:48.144Z,0.10
2022-12-14T20:33:22.837Z,0.05
2022-12-14T20:35:54.246Z,0.01
2022-12-14T20:38:25.086Z,-0.06
2022-12-14T20:40:54.461Z,-0.13
2022-12-14T20:43:23.684Z,-0.19
2022-12-14T20:45:52.552Z,-0.25
2022-12-14T20:48:21.039Z,-0.31
2022-12-14T20:50:51.216Z,-0.33
2022-12-14T20:53:22.180Z,-0.34
2022-12-14T20:55:50.392Z,-0.35
2022-12-14T20:58:18.662Z,-0.36
2022-12-14T21:00:47.226Z,-0.36
2022-12-14T21:03:15.741Z,-0.36
2022-12-14T21:05:44.394Z,-0.36
2022-12-14T21:08:15.729Z,-0.36
2022-12-14T21:10:44.145Z,-0.37
2022-12-14T21:13:12.520Z,-0.37
2022-12-14T21:15:40.848Z,-0.36
2022-12-14T21:18:09.179Z,-0.33
2022-12-14T21:20:37.429Z,-0.29
2022-12-14T21:23:05.650Z,-0.24
2022-12-14T21:25:33.960Z,-0.22
2022-12-14T21:28:02.202Z,-0.22
2022-12-14T21:30:31.299Z,-0.23
2022-12-14T21:32:59.603Z,-0.22
2022-12-14T21:35:28.213Z,-0.18
2022-12-14T21:37:56.962Z,-0.14
2022-12-14T21:40:43.939Z,-0.08
2022-12-14T21:43:13.074Z,-0.04
2022-12-14T21:45:41.378Z,0.03
2022-12-14T21:48:09.638Z,0.07
2022-12-14T21:50:37.954Z,0.10
2022-12-14T21:53:06.298Z,0.12
2022-12-14T21:55:34.567Z,0.12
2022-12-14T21:58:18.190Z,0.11
2022-12-14T22:00:46.591Z,0.11
2022-12-14T22:03:15.060Z,0.10
2022-12-14T22:05:47.448Z,0.09
2022-12-14T22:08:18.675Z,0.09
2022-12-14T22:10:47.097Z,0.09
2022-12-14T22:13:21.328Z,0.10
2022-12-14T22:15:52.556Z,0.11
2022-12-14T22:18:21.562Z,0.12
2022-12-14T22:20:50.046Z,0.13
2022-12-14T22:23:19.740Z,0.14
2022-12-14T22:25:52.948Z,0.16
2022-12-14T22:28:21.303Z,0.17
2022-12-14T22:30:50.636Z,0.17
2022-12-14T22:33:18.925Z,0.19
2022-12-14T22:35:53.180Z,0.23
2022-12-14T22:38:21.402Z,0.23
2022-12-14T22:40:49.678Z,0.24
2022-12-14T22:43:19.889Z,0.26
2022-12-14T22:45:53.229Z,0.28
2022-12-14T22:48:24.822Z,0.33
2022-12-14T22:51:00.796Z,0.35
2022-12-14T22:53:33.888Z,0.37
2022-12-14T22:56:31.144Z,0.42
2022-12-14T22:59:07.430Z,0.43
2022-12-14T23:01:37.847Z,0.45
2022-12-14T23:04:08.671Z,0.46
2022-12-14T23:06:37.126Z,0.47
2022-12-14T23:09:25.350Z,0.46
2022-12-14T23:12:13.422Z,0.47
2022-12-14T23:15:00.745Z,0.46
2022-12-14T23:17:48.215Z,0.46
2022-12-14T23:20:35.595Z,0.45
2022-12-14T23:23:27.603Z,0.46
2022-12-14T23:26:15.111Z,0.46
2022-12-14T23:29:02.546Z,0.46
2022-12-14T23:31:50.017Z,0.45
2022-12-14T23:34:37.243Z,0.45
2022-12-14T23:37:24.210Z,0.45
2022-12-14T23:40:11.359Z,0.45
2022-12-14T23:42:58.592Z,0.45
2022-12-14T23:45:45.875Z,0.47
2022-12-14T23:48:33.202Z,0.47
2022-12-14T23:51:20.671Z,0.47
2022-12-14T23:54:08.099Z,0.46
2022-12-14T23:56:55.618Z,0.47
2022-12-14T23:59:42.871Z,0.47
